createdAt,value
2022-09-26T00:01:10.209Z,14.02
2022-09-26T00:03:37.312Z,13.50
2022-09-26T00:06:06.192Z,14.00
2022-09-26T00:08:33.569Z,12.98
2022-09-26T00:11:01.762Z,13.50
2022-09-26T00:13:29.649Z,13.15
2022-09-26T00:15:57.389Z,13.52
2022-09-26T00:18:24.922Z,12.70
2022-09-26T00:20:51.841Z,14.07
2022-09-26T00:23:19.053Z,13.32
2022-09-26T00:25:50.181Z,12.98
2022-09-26T00:28:18.111Z,12.50
2022-09-26T00:30:45.245Z,13.27
2022-09-26T00:33:12.321Z,12.23
2022-09-26T00:35:39.184Z,11.65
2022-09-26T00:38:06.529Z,12.98
2022-09-26T00:40:33.371Z,13.40
2022-09-26T00:43:00.053Z,13.40
2022-09-26T00:45:30.522Z,12.18
2022-09-26T00:48:06.845Z,13.02
2022-09-26T00:50:39.220Z,13.52
2022-09-26T00:53:10.461Z,12.93
2022-09-26T00:55:40.000Z,13.93
2022-09-26T00:58:14.667Z,12.65
2022-09-26T01:00:42.662Z,13.68
2022-09-26T01:03:09.663Z,13.68
2022-09-26T01:05:37.101Z,14.50
2022-09-26T01:08:04.416Z,13.52
2022-09-26T01:10:32.185Z,14.48
2022-09-26T01:13:01.558Z,13.77
2022-09-26T01:15:29.169Z,14.18
2022-09-26T01:17:56.030Z,14.45
2022-09-26T01:20:27.207Z,14.10
2022-09-26T01:23:30.946Z,14.88
2022-09-26T01:26:24.622Z,13.55
2022-09-26T01:29:21.161Z,13.85
2022-09-26T01:32:23.095Z,12.07
2022-09-26T01:34:59.532Z,11.90
2022-09-26T01:37:40.010Z,12.90
2022-09-26T01:40:10.997Z,13.52
2022-09-26T01:43:00.111Z,12.27
2022-09-26T01:45:33.596Z,13.18
2022-09-26T01:48:06.069Z,13.00
2022-09-26T01:50:44.232Z,13.15
2022-09-26T01:53:25.200Z,12.50
2022-09-26T01:56:00.104Z,12.60
2022-09-26T01:58:39.297Z,12.57
2022-09-26T02:01:10.672Z,12.15
2022-09-26T02:03:42.457Z,11.13
2022-09-26T02:06:13.171Z,11.27
2022-09-26T02:08:44.030Z,12.02
2022-09-26T02:11:15.280Z,11.80
2022-09-26T02:13:55.701Z,11.40
2022-09-26T02:16:32.161Z,12.32
2022-09-26T02:19:08.968Z,11.68
2022-09-26T02:21:35.719Z,11.27
2022-09-26T02:24:02.524Z,12.35
2022-09-26T02:26:29.519Z,11.25
2022-09-26T02:28:59.236Z,11.57
2022-09-26T02:31:30.278Z,11.45
2022-09-26T02:33:57.677Z,12.05
2022-09-26T02:36:26.708Z,11.90
2022-09-26T02:38:53.398Z,11.57
2022-09-26T02:41:51.006Z,11.27
2022-09-26T02:44:42.021Z,11.70
2022-09-26T02:47:28.293Z,11.45
2022-09-26T02:50:01.619Z,11.77
2022-09-26T02:52:49.756Z,11.95
2022-09-26T02:55:27.655Z,9.07
2022-09-26T02:58:12.602Z,12.60
2022-09-26T03:00:48.641Z,12.43
2022-09-26T03:03:33.817Z,12.82
2022-09-26T03:06:03.563Z,13.13
2022-09-26T03:08:35.054Z,12.50
2022-09-26T03:11:05.252Z,13.68
2022-09-26T03:13:38.101Z,13.48
2022-09-26T03:16:06.488Z,13.13
2022-09-26T03:18:42.152Z,11.45
2022-09-26T03:21:09.462Z,11.52
2022-09-26T03:23:37.788Z,12.43
2022-09-26T03:26:12.811Z,10.38
2022-09-26T03:28:50.336Z,12.18
2022-09-26T03:31:18.192Z,12.00
2022-09-26T03:33:52.280Z,11.10
2022-09-26T03:36:19.439Z,11.23
2022-09-26T03:38:46.223Z,10.65
2022-09-26T03:41:33.089Z,12.20
2022-09-26T03:44:07.638Z,10.68
2022-09-26T03:46:54.248Z,11.50
2022-09-26T03:49:21.323Z,11.70
2022-09-26T03:51:48.071Z,10.80
2022-09-26T03:54:14.992Z,11.57
2022-09-26T03:56:41.905Z,11.68
2022-09-26T03:59:09.229Z,10.35
2022-09-26T04:01:36.610Z,10.02
2022-09-26T04:04:03.247Z,10.32
2022-09-26T04:06:29.986Z,10.70
2022-09-26T04:08:59.096Z,11.10
2022-09-26T04:11:25.859Z,10.63
2022-09-26T04:13:53.968Z,11.10
2022-09-26T04:16:24.470Z,10.80
2022-09-26T04:19:12.428Z,11.02
2022-09-26T04:21:40.219Z,10.75
2022-09-26T04:24:14.629Z,11.35
2022-09-26T04:26:43.079Z,11.23
2022-09-26T04:29:10.341Z,11.55
2022-09-26T04:31:51.903Z,11.33
2022-09-26T04:34:27.243Z,10.90
2022-09-26T04:36:54.293Z,11.33
2022-09-26T04:39:21.101Z,10.70
2022-09-26T04:41:48.263Z,10.25
2022-09-26T04:44:15.301Z,10.50
2022-09-26T04:46:42.236Z,9.98
2022-09-26T04:49:09.788Z,10.25
2022-09-26T04:51:37.621Z,9.98
2022-09-26T04:54:04.694Z,10.07
2022-09-26T04:56:37.123Z,10.65
2022-09-26T04:59:05.637Z,9.85
2022-09-26T05:01:54.405Z,9.50
2022-09-26T05:04:27.740Z,9.45
2022-09-26T05:06:57.928Z,9.55
2022-09-26T05:09:30.760Z,9.52
2022-09-26T05:12:07.547Z,11.35
2022-09-26T05:14:36.342Z,9.85
2022-09-26T05:17:04.660Z,9.63
2022-09-26T05:19:32.952Z,9.68
2022-09-26T05:22:18.962Z,9.93
2022-09-26T05:25:04.615Z,10.27
2022-09-26T05:27:31.358Z,10.00
2022-09-26T05:29:58.287Z,9.93
2022-09-26T05:32:29.163Z,10.48
2022-09-26T05:34:56.251Z,11.88
2022-09-26T05:37:24.105Z,12.40
2022-09-26T05:40:09.548Z,11.65
2022-09-26T05:42:40.973Z,11.38
2022-09-26T05:45:08.904Z,11.18
2022-09-26T05:47:36.379Z,12.65
2022-09-26T05:50:09.979Z,13.20
2022-09-26T05:52:38.945Z,13.77
2022-09-26T05:55:07.997Z,13.98
2022-09-26T05:58:04.300Z,13.35
2022-09-26T06:00:53.614Z,14.05
2022-09-26T06:03:21.056Z,13.40
2022-09-26T06:06:13.792Z,12.93
2022-09-26T06:08:42.018Z,13.30
2022-09-26T06:11:22.691Z,14.38
2022-09-26T06:13:49.780Z,12.65
2022-09-26T06:16:19.580Z,13.32
2022-09-26T06:18:50.679Z,12.77
2022-09-26T06:21:19.375Z,12.27
2022-09-26T06:23:49.822Z,12.38
2022-09-26T06:26:27.226Z,12.27
2022-09-26T06:29:00.328Z,12.13
2022-09-26T06:31:30.054Z,12.60
2022-09-26T06:36:51.598Z,10.65
2022-09-26T06:39:18.327Z,12.10
2022-09-26T06:41:46.490Z,12.02
2022-09-26T06:44:35.860Z,12.10
2022-09-26T06:47:29.232Z,11.68
2022-09-26T06:50:22.655Z,10.82
2022-09-26T06:52:53.243Z,10.63
2022-09-26T06:55:19.986Z,10.68
2022-09-26T06:57:46.671Z,10.35
2022-09-26T07:00:15.958Z,10.18
2022-09-26T07:03:01.887Z,10.98
2022-09-26T07:05:56.350Z,9.38
2022-09-26T07:08:37.738Z,9.57
2022-09-26T07:11:32.650Z,8.77
2022-09-26T07:14:02.329Z,9.95
2022-09-26T07:16:29.811Z,10.20
2022-09-26T07:19:17.099Z,8.07
2022-09-26T07:21:55.416Z,7.85
2022-09-26T07:24:34.289Z,6.93
2022-09-26T07:27:01.861Z,6.55
2022-09-26T07:29:29.269Z,6.55
2022-09-26T07:31:56.159Z,6.13
2022-09-26T07:34:42.965Z,5.57
2022-09-26T07:37:12.030Z,5.60
2022-09-26T07:39:38.769Z,5.30
2022-09-26T07:42:05.652Z,5.75
2022-09-26T07:47:37.960Z,5.05
2022-09-26T07:50:11.323Z,4.57
2022-09-26T07:52:56.376Z,4.35
2022-09-26T07:55:27.402Z,4.70
2022-09-26T07:58:13.718Z,4.85
2022-09-26T08:00:58.802Z,4.35
2022-09-26T08:04:01.756Z,3.75
2022-09-26T08:06:36.798Z,3.92
2022-09-26T08:09:03.476Z,3.55
2022-09-26T08:11:48.715Z,3.83
2022-09-26T08:14:32.249Z,3.85
2022-09-26T08:17:14.415Z,3.67
2022-09-26T08:19:41.230Z,3.45
2022-09-26T08:22:08.562Z,4.05
2022-09-26T08:24:35.816Z,4.15
2022-09-26T08:27:23.196Z,4.50
2022-09-26T08:29:51.166Z,3.42
2022-09-26T08:32:19.453Z,3.30
2022-09-26T08:34:47.205Z,3.05
2022-09-26T08:37:36.952Z,3.55
2022-09-26T08:40:26.964Z,3.00
2022-09-26T08:43:56.372Z,3.30
2022-09-26T08:46:51.689Z,3.03
2022-09-26T08:50:00.131Z,3.38
2022-09-26T08:52:36.231Z,2.42
2022-09-26T08:55:27.975Z,3.25
2022-09-26T08:58:05.887Z,2.55
2022-09-26T09:00:33.887Z,2.30
2022-09-26T09:03:23.373Z,2.65
2022-09-26T09:05:53.136Z,3.03
2022-09-26T09:08:23.557Z,2.92
2022-09-26T09:11:26.397Z,3.15
2022-09-26T09:14:29.886Z,2.58
2022-09-26T09:17:21.183Z,2.47
2022-09-26T09:20:16.237Z,2.72
2022-09-26T09:23:24.509Z,2.60
2022-09-26T09:27:52.370Z,3.88
2022-09-26T09:28:53.364Z,3.22
2022-09-26T09:31:20.629Z,2.80
2022-09-26T09:34:26.780Z,3.22
2022-09-26T09:37:24.127Z,2.83
2022-09-26T09:40:28.144Z,2.60
2022-09-26T09:43:05.321Z,2.33
2022-09-26T09:45:46.393Z,2.72
2022-09-26T09:48:13.409Z,2.90
2022-09-26T09:50:42.998Z,2.00
2022-09-26T09:53:37.152Z,2.15
2022-09-26T09:56:36.778Z,2.00
2022-09-26T09:59:41.551Z,2.33
2022-09-26T10:02:19.606Z,2.42
2022-09-26T10:04:52.902Z,2.00
2022-09-26T10:07:19.829Z,2.10
2022-09-26T10:10:13.810Z,2.17
2022-09-26T10:12:59.021Z,1.70
2022-09-26T10:16:01.510Z,1.83
2022-09-26T10:19:04.217Z,1.65
2022-09-26T10:21:34.516Z,1.98
2022-09-26T10:24:04.849Z,2.30
2022-09-26T10:26:49.575Z,1.98
2022-09-26T10:29:35.232Z,2.30
2022-09-26T10:32:02.629Z,1.92
2022-09-26T10:34:32.058Z,2.42
2022-09-26T10:37:20.455Z,1.73
2022-09-26T10:40:16.390Z,1.80
2022-09-26T10:42:47.190Z,1.67
2022-09-26T10:45:18.053Z,1.50
2022-09-26T10:48:08.172Z,1.88
2022-09-26T10:53:38.675Z,1.55
2022-09-26T10:56:12.037Z,1.33
2022-09-26T10:58:42.629Z,1.45
2022-09-26T11:01:21.057Z,1.80
2022-09-26T11:03:49.449Z,1.60
2022-09-26T11:06:40.735Z,1.20
2022-09-26T11:09:30.968Z,1.15
2022-09-26T11:11:57.851Z,1.20
2022-09-26T11:14:31.294Z,1.30
2022-09-26T11:17:03.389Z,1.38
2022-09-26T11:19:35.396Z,0.93
2022-09-26T11:22:08.526Z,1.17
2022-09-26T11:24:55.158Z,1.35
2022-09-26T11:27:43.394Z,1.73
2022-09-26T11:30:15.163Z,0.95
2022-09-26T11:32:55.461Z,0.80
2022-09-26T11:36:11.074Z,1.25
2022-09-26T11:38:51.027Z,1.25
2022-09-26T11:41:44.101Z,1.10
2022-09-26T11:44:47.811Z,0.98
2022-09-26T11:47:44.908Z,0.90
2022-09-26T11:50:26.566Z,1.10
2022-09-26T11:54:00.517Z,0.95
2022-09-26T11:56:42.233Z,1.23
2022-09-26T11:59:21.399Z,1.05
2022-09-26T12:02:19.307Z,1.20
2022-09-26T12:05:13.847Z,0.70
2022-09-26T12:07:56.402Z,1.20
2022-09-26T12:10:45.351Z,1.05
2022-09-26T12:13:54.369Z,1.35
2022-09-26T12:16:37.373Z,2.35
2022-09-26T12:19:22.916Z,2.65
2022-09-26T12:22:23.303Z,1.42
2022-09-26T12:25:19.926Z,1.70
2022-09-26T12:28:02.438Z,1.42
2022-09-26T12:30:37.565Z,1.50
2022-09-26T12:33:51.173Z,1.38
2022-09-26T12:36:40.696Z,1.40
2022-09-26T12:39:24.679Z,1.58
2022-09-26T12:41:57.242Z,1.23
2022-09-26T12:44:39.087Z,1.65
2022-09-26T12:47:55.763Z,1.75
2022-09-26T12:50:29.334Z,1.67
2022-09-26T12:53:10.349Z,1.88
2022-09-26T12:55:49.016Z,1.98
2022-09-26T12:58:55.421Z,2.42
2022-09-26T13:02:10.125Z,1.67
2022-09-26T13:04:46.127Z,1.67
2022-09-26T13:07:21.380Z,2.03
2022-09-26T13:09:55.570Z,1.27
2022-09-26T13:12:50.856Z,1.65
2022-09-26T13:15:32.512Z,1.35
2022-09-26T13:18:05.300Z,1.40
2022-09-26T13:20:43.645Z,1.48
2022-09-26T13:23:27.498Z,0.93
2022-09-26T13:26:15.432Z,1.08
2022-09-26T13:29:18.019Z,0.50
2022-09-26T13:32:02.008Z,0.73
2022-09-26T13:34:39.582Z,0.60
2022-09-26T13:37:19.667Z,0.60
2022-09-26T13:40:21.301Z,0.40
2022-09-26T13:42:58.313Z,0.60
2022-09-26T13:45:43.126Z,0.70
2022-09-26T13:48:33.805Z,0.50
2022-09-26T13:51:19.336Z,0.82
2022-09-26T13:53:51.936Z,0.50
2022-09-26T13:59:14.525Z,0.70
2022-09-26T14:02:19.009Z,0.57
2022-09-26T14:04:50.413Z,0.38
2022-09-26T14:08:06.083Z,0.60
2022-09-26T14:10:37.017Z,0.65
2022-09-26T14:13:24.961Z,0.57
2022-09-26T14:16:05.882Z,0.80
2022-09-26T14:18:45.343Z,0.60
2022-09-26T14:21:29.128Z,0.40
2022-09-26T14:24:20.725Z,0.55
2022-09-26T14:27:05.648Z,0.80
2022-09-26T14:29:32.660Z,0.60
2022-09-26T14:32:09.823Z,0.90
2022-09-26T14:34:53.355Z,0.80
2022-09-26T14:37:25.754Z,0.70
2022-09-26T14:40:13.880Z,0.85
2022-09-26T14:42:46.182Z,0.93
2022-09-26T14:45:25.068Z,0.75
2022-09-26T14:48:08.102Z,0.50
2022-09-26T14:50:44.371Z,1.00
2022-09-26T14:53:22.822Z,0.70
2022-09-26T14:56:03.341Z,0.50
2022-09-26T14:58:39.684Z,0.68
2022-09-26T15:01:18.151Z,0.60
2022-09-26T15:04:18.067Z,1.00
2022-09-26T15:07:00.334Z,0.70
2022-09-26T15:09:47.976Z,0.50
2022-09-26T15:12:27.507Z,0.77
2022-09-26T15:15:00.050Z,0.90
2022-09-26T15:17:33.940Z,0.80
2022-09-26T15:20:10.254Z,1.00
2022-09-26T15:22:37.191Z,1.10
2022-09-26T15:25:09.190Z,1.00
2022-09-26T15:27:35.842Z,0.60
2022-09-26T15:30:07.585Z,0.70
2022-09-26T15:32:34.379Z,0.70
2022-09-26T15:35:01.730Z,0.70
2022-09-26T15:37:34.607Z,0.80
2022-09-26T15:40:34.240Z,0.85
2022-09-26T15:43:10.496Z,0.82
2022-09-26T15:45:56.564Z,0.73
2022-09-26T15:48:34.581Z,0.82
2022-09-26T15:51:05.975Z,0.50
2022-09-26T15:53:42.963Z,1.45
2022-09-26T15:56:12.857Z,1.25
2022-09-26T15:58:39.425Z,0.80
2022-09-26T16:01:07.448Z,0.80
2022-09-26T16:03:37.255Z,0.80
2022-09-26T16:06:23.109Z,1.33
2022-09-26T16:09:00.538Z,0.93
2022-09-26T16:11:27.798Z,0.77
2022-09-26T16:13:56.693Z,0.90
2022-09-26T16:16:31.808Z,1.00
2022-09-26T16:19:03.820Z,0.88
2022-09-26T16:21:36.498Z,0.77
2022-09-26T16:24:26.943Z,0.75
2022-09-26T16:26:54.930Z,1.10
2022-09-26T16:29:34.782Z,1.05
2022-09-26T16:32:03.488Z,1.08
2022-09-26T16:34:31.625Z,1.00
2022-09-26T16:36:58.543Z,0.93
2022-09-26T16:39:29.970Z,0.80
2022-09-26T16:42:03.123Z,1.23
2022-09-26T16:44:42.617Z,1.13
2022-09-26T16:47:39.431Z,0.82
2022-09-26T16:50:26.773Z,1.17
2022-09-26T16:52:54.282Z,1.02
2022-09-26T16:55:21.711Z,0.88
2022-09-26T16:57:57.595Z,1.20
2022-09-26T17:00:48.781Z,1.08
2022-09-26T17:03:26.537Z,1.38
2022-09-26T17:05:55.622Z,1.08
2022-09-26T17:08:23.408Z,1.35
2022-09-26T17:10:50.089Z,1.35
2022-09-26T17:13:26.294Z,1.10
2022-09-26T17:15:55.602Z,1.00
2022-09-26T17:18:29.192Z,1.25
2022-09-26T17:20:56.892Z,1.00
2022-09-26T17:23:39.525Z,1.27
2022-09-26T17:26:07.797Z,1.17
2022-09-26T17:28:40.450Z,0.95
2022-09-26T17:31:10.019Z,1.35
2022-09-26T17:33:40.637Z,1.10
2022-09-26T17:36:11.037Z,1.08
2022-09-26T17:38:40.369Z,1.10
2022-09-26T17:41:07.001Z,1.58
2022-09-26T17:43:34.100Z,1.58
2022-09-26T17:46:01.081Z,1.45
2022-09-26T17:48:31.385Z,1.20
2022-09-26T17:51:00.662Z,1.80
2022-09-26T17:53:36.570Z,1.55
2022-09-26T17:56:06.336Z,1.27
2022-09-26T17:58:44.341Z,1.40
2022-09-26T18:01:23.743Z,1.90
2022-09-26T18:03:52.122Z,1.42
2022-09-26T18:06:19.379Z,1.40
2022-09-26T18:08:46.384Z,1.38
2022-09-26T18:11:15.751Z,1.67
2022-09-26T18:13:49.936Z,1.33
2022-09-26T18:16:16.932Z,1.45
2022-09-26T18:18:44.207Z,1.35
2022-09-26T18:21:15.709Z,1.90
2022-09-26T18:23:44.252Z,1.65
2022-09-26T18:26:31.615Z,1.20
2022-09-26T18:29:01.775Z,1.60
2022-09-26T18:31:30.115Z,1.35
2022-09-26T18:33:58.054Z,1.70
2022-09-26T18:36:25.000Z,1.60
2022-09-26T18:38:53.789Z,1.60
2022-09-26T18:41:22.110Z,1.30
2022-09-26T18:43:52.650Z,1.00
2022-09-26T18:46:19.603Z,1.42
2022-09-26T18:48:47.397Z,1.48
2022-09-26T18:51:14.497Z,1.20
2022-09-26T18:53:41.932Z,1.30
2022-09-26T18:56:28.835Z,0.98
2022-09-26T18:59:01.118Z,1.60
2022-09-26T19:01:35.902Z,1.30
2022-09-26T19:04:04.476Z,1.45
2022-09-26T19:06:35.234Z,1.50
2022-09-26T19:09:07.803Z,1.50
2022-09-26T19:11:35.205Z,1.75
2022-09-26T19:14:12.022Z,1.55
2022-09-26T19:16:38.720Z,1.27
2022-09-26T19:19:05.384Z,1.52
2022-09-26T19:21:51.076Z,1.38
2022-09-26T19:24:21.699Z,1.23
2022-09-26T19:26:53.908Z,1.80
2022-09-26T19:29:27.624Z,1.63
2022-09-26T19:31:54.545Z,1.80
2022-09-26T19:34:22.134Z,1.60
2022-09-26T19:36:50.280Z,1.75
2022-09-26T19:39:17.170Z,1.23
2022-09-26T19:41:43.832Z,1.73
2022-09-26T19:44:10.576Z,1.30
2022-09-26T19:46:37.560Z,1.50
2022-09-26T19:49:05.880Z,1.40
2022-09-26T19:51:34.377Z,1.42
2022-09-26T19:54:05.961Z,1.63
2022-09-26T19:56:33.367Z,1.50
2022-09-26T19:59:00.351Z,1.42
2022-09-26T20:01:27.529Z,2.00
2022-09-26T20:03:54.250Z,1.88
2022-09-26T20:06:23.005Z,1.70
2022-09-26T20:08:51.143Z,1.67
2022-09-26T20:11:17.805Z,1.52
2022-09-26T20:14:03.652Z,1.60
2022-09-26T20:16:34.488Z,2.03
2022-09-26T20:19:03.642Z,1.90
2022-09-26T20:21:30.729Z,1.60
2022-09-26T20:24:00.419Z,2.00
2022-09-26T20:26:29.516Z,1.63
2022-09-26T20:28:57.021Z,1.60
2022-09-26T20:31:28.078Z,1.48
2022-09-26T20:33:59.297Z,1.67
2022-09-26T20:36:30.739Z,1.42
2022-09-26T20:39:00.480Z,1.85
2022-09-26T20:41:38.812Z,1.73
2022-09-26T20:44:08.202Z,1.77
2022-09-26T20:46:37.018Z,1.38
2022-09-26T20:49:07.809Z,1.60
2022-09-26T20:51:35.178Z,1.45
2022-09-26T20:54:02.706Z,1.50
2022-09-26T20:56:29.589Z,1.55
2022-09-26T20:58:56.245Z,0.95
2022-09-26T21:01:23.030Z,1.67
2022-09-26T21:03:52.146Z,1.40
2022-09-26T21:06:21.309Z,1.60
2022-09-26T21:08:48.200Z,1.83
2022-09-26T21:11:20.095Z,1.55
2022-09-26T21:13:46.921Z,1.38
2022-09-26T21:16:14.946Z,1.42
2022-09-26T21:18:43.339Z,1.45
2022-09-26T21:21:23.256Z,1.30
2022-09-26T21:23:59.040Z,1.38
2022-09-26T21:26:27.771Z,1.10
2022-09-26T21:28:56.207Z,1.23
2022-09-26T21:31:28.648Z,0.80
2022-09-26T21:34:00.430Z,1.10
2022-09-26T21:36:34.732Z,1.00
2022-09-26T21:39:02.250Z,1.00
2022-09-26T21:41:29.447Z,0.90
2022-09-26T21:44:14.109Z,1.27
2022-09-26T21:46:40.790Z,0.70
2022-09-26T21:49:07.563Z,0.90
2022-09-26T21:51:35.358Z,0.75
2022-09-26T21:54:24.695Z,0.60
2022-09-26T21:56:55.436Z,0.88
2022-09-26T21:59:23.781Z,0.60
2022-09-26T22:01:50.504Z,0.80
2022-09-26T22:04:19.062Z,0.93
2022-09-26T22:06:45.763Z,1.00
2022-09-26T22:09:12.614Z,1.02
2022-09-26T22:11:39.849Z,1.10
2022-09-26T22:14:06.772Z,0.95
2022-09-26T22:16:33.510Z,0.80
2022-09-26T22:19:00.556Z,0.90
2022-09-26T22:21:27.689Z,1.27
2022-09-26T22:23:54.373Z,1.00
2022-09-26T22:26:21.155Z,1.17
2022-09-26T22:28:49.193Z,0.80
2022-09-26T22:31:16.239Z,0.93
2022-09-26T22:33:42.962Z,0.90
2022-09-26T22:36:09.776Z,1.00
2022-09-26T22:38:36.971Z,0.95
2022-09-26T22:41:06.306Z,1.40
2022-09-26T22:43:33.875Z,1.38
2022-09-26T22:46:08.980Z,1.25
2022-09-26T22:48:38.045Z,1.52
2022-09-26T22:51:05.260Z,1.40
2022-09-26T22:53:36.279Z,1.63
2022-09-26T22:56:05.627Z,1.83
2022-09-26T22:58:36.716Z,2.08
2022-09-26T23:01:05.526Z,2.30
2022-09-26T23:03:33.140Z,2.70
2022-09-26T23:06:00.328Z,3.08
2022-09-26T23:08:27.402Z,3.00
2022-09-26T23:10:55.523Z,3.25
2022-09-26T23:13:24.605Z,2.60
2022-09-26T23:15:51.260Z,2.40
2022-09-26T23:18:17.898Z,2.80
2022-09-26T23:20:45.044Z,2.90
2022-09-26T23:23:13.387Z,2.50
2022-09-26T23:25:47.889Z,2.15
2022-09-26T23:28:15.315Z,1.95
2022-09-26T23:30:42.604Z,2.17
2022-09-26T23:33:09.886Z,2.10
2022-09-26T23:35:36.844Z,2.00
2022-09-26T23:38:05.438Z,1.83
2022-09-26T23:40:34.341Z,1.80
2022-09-26T23:43:02.368Z,1.40
2022-09-26T23:45:29.181Z,1.33
2022-09-26T23:47:55.959Z,1.73
2022-09-26T23:50:22.652Z,1.55
2022-09-26T23:52:49.397Z,1.60
2022-09-26T23:55:16.961Z,1.38
2022-09-26T23:57:43.646Z,1.38
